Time;durP1;ratioP1;P1;durP2;ratioP2;P2;SDS_P1;SDS_P2;PMS_P1;PMS_P2;Temp;Humidity;BMP_temperature;BMP_pressure;BME280_temperature;BME280_humidity;BME280_pressure;Samples;Min_cycle;Max_cycle;Signal;HPM_P1;HPM_P2
2024/03/05 00:02:13;;;;;;;6.20;5.53;;;;;;;;;;5027908;28;59723;-79
2024/03/05 00:04:38;;;;;;;6.77;6.17;;;;;;;;;;5028080;28;59223;-79
2024/03/05 00:07:03;;;;;;;6.03;5.43;;;;;;;;;;5026838;28;59271;-79
2024/03/05 00:09:30;;;;;;;5.63;5.10;;;;;;;;;;5026993;28;60166;-79
2024/03/05 00:11:55;;;;;;;6.50;5.75;;;;;;;;;;5024675;28;59464;-80
2024/03/05 00:14:20;;;;;;;5.73;5.23;;;;;;;;;;5028649;28;59311;-79
2024/03/05 00:16:47;;;;;;;5.90;5.30;;;;;;;;;;5027855;28;60186;-79
2024/03/05 00:19:12;;;;;;;6.65;5.95;;;;;;;;;;5024736;28;59294;-80
2024/03/05 00:21:37;;;;;;;6.17;5.57;;;;;;;;;;5028894;28;59154;-79
2024/03/05 00:24:02;;;;;;;5.60;5.03;;;;;;;;;;5025551;28;60493;-79
2024/03/05 00:26:27;;;;;;;6.63;6.00;;;;;;;;;;5026395;28;59163;-80
2024/03/05 00:28:55;;;;;;;7.13;6.10;;;;;;;;;;5028798;28;60734;-79
2024/03/05 00:31:21;;;;;;;5.97;5.47;;;;;;;;;;5023873;28;59395;-80
2024/03/05 00:33:46;;;;;;;5.68;5.18;;;;;;;;;;5026078;28;59132;-79
2024/03/05 00:36:12;;;;;;;6.60;5.28;;;;;;;;;;5027331;28;60976;-79
2024/03/05 00:38:37;;;;;;;5.50;4.97;;;;;;;;;;5026715;28;59411;-80
2024/03/05 00:41:02;;;;;;;6.70;6.03;;;;;;;;;;5027064;28;59570;-79
2024/03/05 00:43:27;;;;;;;6.87;6.17;;;;;;;;;;5023473;28;62215;-79
2024/03/05 00:45:53;;;;;;;6.60;6.00;;;;;;;;;;5025910;28;59449;-78
2024/03/05 00:48:19;;;;;;;6.13;5.63;;;;;;;;;;5025757;28;61250;-79
2024/03/05 00:50:44;;;;;;;5.95;5.35;;;;;;;;;;5024611;28;60480;-79
2024/03/05 00:53:09;;;;;;;6.03;5.50;;;;;;;;;;5027048;28;59282;-79
2024/03/05 00:55:37;;;;;;;6.30;5.05;;;;;;;;;;5026185;28;59994;-79
2024/03/05 00:58:02;;;;;;;6.50;5.90;;;;;;;;;;5024284;28;59186;-79
2024/03/05 01:00:27;;;;;;;5.87;5.30;;;;;;;;;;5025238;28;59260;-79
2024/03/05 01:02:52;;;;;;;6.47;5.87;;;;;;;;;;5024123;28;60275;-79
2024/03/05 01:05:18;;;;;;;5.63;5.10;;;;;;;;;;5026719;28;59113;-78
2024/03/05 01:07:44;;;;;;;5.47;5.05;;;;;;;;;;5025091;28;60331;-79
2024/03/05 01:10:09;;;;;;;7.60;5.88;;;;;;;;;;5024913;28;59379;-79
2024/03/05 01:12:35;;;;;;;5.75;5.00;;;;;;;;;;5024145;28;59278;-79
2024/03/05 01:15:00;;;;;;;4.97;4.57;;;;;;;;;;5027928;28;59348;-80
2024/03/05 01:17:27;;;;;;;6.23;5.57;;;;;;;;;;5027109;28;59316;-79
2024/03/05 01:19:52;;;;;;;6.30;5.70;;;;;;;;;;5026751;28;59211;-79
2024/03/05 01:22:17;;;;;;;5.40;4.57;;;;;;;;;;5025703;28;60435;-79
2024/03/05 01:24:43;;;;;;;5.63;5.13;;;;;;;;;;5022369;28;59180;-79
2024/03/05 01:27:08;;;;;;;6.57;5.97;;;;;;;;;;5025489;28;59994;-79
2024/03/05 01:29:33;;;;;;;5.90;5.30;;;;;;;;;;5026176;28;59742;-79
2024/03/05 01:31:59;;;;;;;5.77;5.17;;;;;;;;;;5023463;28;59234;-79
2024/03/05 01:34:25;;;;;;;6.13;5.05;;;;;;;;;;5024287;28;60367;-80
2024/03/05 01:36:50;;;;;;;6.43;5.22;;;;;;;;;;5023028;28;59310;-79
2024/03/05 01:39:17;;;;;;;5.53;5.03;;;;;;;;;;5021117;28;59363;-79
2024/03/05 01:41:43;;;;;;;4.72;4.32;;;;;;;;;;5022926;28;60716;-80
2024/03/05 01:44:08;;;;;;;5.85;5.25;;;;;;;;;;5023022;28;59909;-79
2024/03/05 01:46:33;;;;;;;5.72;5.22;;;;;;;;;;5025412;28;59282;-79
2024/03/05 01:48:58;;;;;;;4.93;4.53;;;;;;;;;;5023379;28;59237;-78
2024/03/05 01:51:24;;;;;;;6.07;5.57;;;;;;;;;;5025949;28;59190;-79
2024/03/05 01:53:49;;;;;;;5.72;5.07;;;;;;;;;;5021926;28;60138;-78
2024/03/05 01:56:17;;;;;;;5.43;4.93;;;;;;;;;;5022486;28;59465;-81
2024/03/05 01:58:42;;;;;;;5.30;4.80;;;;;;;;;;5025003;28;59258;-81
2024/03/05 02:01:08;;;;;;;6.10;5.57;;;;;;;;;;5024082;28;60093;-80
2024/03/05 02:03:35;;;;;;;5.35;4.85;;;;;;;;;;5021476;28;59217;-80
2024/03/05 02:06:01;;;;;;;5.45;4.90;;;;;;;;;;5023838;28;59193;-80
2024/03/05 02:08:27;;;;;;;5.63;5.13;;;;;;;;;;5024878;28;61534;-81
2024/03/05 02:10:52;;;;;;;5.70;5.13;;;;;;;;;;5022757;28;59238;-76
2024/03/05 02:13:17;;;;;;;6.27;5.67;;;;;;;;;;5019536;28;61026;-76
2024/03/05 02:15:42;;;;;;;5.60;5.10;;;;;;;;;;5023580;28;60498;-78
2024/03/05 02:18:07;;;;;;;6.50;4.20;;;;;;;;;;5022711;28;59194;-78
2024/03/05 02:20:33;;;;;;;5.87;4.80;;;;;;;;;;5023600;28;60282;-78
2024/03/05 02:22:58;;;;;;;4.90;4.50;;;;;;;;;;5023954;28;59394;-78
2024/03/05 02:25:24;;;;;;;5.30;4.80;;;;;;;;;;4986005;28;1042360;-78
2024/03/05 02:27:49;;;;;;;4.80;4.27;;;;;;;;;;5025582;28;59358;-79
2024/03/05 02:30:15;;;;;;;4.78;4.38;;;;;;;;;;5025118;28;59378;-78
2024/03/05 02:32:41;;;;;;;6.32;4.80;;;;;;;;;;5025316;28;59959;-78
2024/03/05 02:35:06;;;;;;;4.93;4.53;;;;;;;;;;5024925;28;60121;-78
2024/03/05 02:37:32;;;;;;;4.70;4.30;;;;;;;;;;5026235;28;59321;-78
2024/03/05 02:39:58;;;;;;;5.35;4.85;;;;;;;;;;5023847;28;60732;-78
2024/03/05 02:42:23;;;;;;;5.25;4.38;;;;;;;;;;5023497;28;60739;-76
2024/03/05 02:44:48;;;;;;;4.72;4.30;;;;;;;;;;5026365;28;59362;-76
2024/03/05 02:47:13;;;;;;;5.03;4.60;;;;;;;;;;5025372;28;60307;-76
2024/03/05 02:49:38;;;;;;;5.13;4.13;;;;;;;;;;5025057;28;59415;-76
2024/03/05 02:52:03;;;;;;;4.67;4.27;;;;;;;;;;5022889;28;60157;-76
2024/03/05 02:54:29;;;;;;;5.07;4.57;;;;;;;;;;5021982;28;61201;-78
2024/03/05 02:56:54;;;;;;;4.37;3.97;;;;;;;;;;5024132;28;59263;-77
2024/03/05 02:59:19;;;;;;;4.72;4.30;;;;;;;;;;5025564;28;60065;-78
2024/03/05 03:01:46;;;;;;;4.82;4.35;;;;;;;;;;5024778;28;59438;-78
2024/03/05 03:04:11;;;;;;;4.35;4.03;;;;;;;;;;5024038;28;59171;-78
2024/03/05 03:06:36;;;;;;;4.40;4.00;;;;;;;;;;5024298;28;59210;-78
2024/03/05 03:09:03;;;;;;;4.43;4.03;;;;;;;;;;5026188;28;59222;-78
2024/03/05 03:11:28;;;;;;;4.63;4.22;;;;;;;;;;5022591;28;59245;-78
2024/03/05 03:13:53;;;;;;;4.53;4.07;;;;;;;;;;5025741;28;59161;-78
2024/03/05 03:16:18;;;;;;;4.17;3.77;;;;;;;;;;5024009;28;59158;-78
2024/03/05 03:18:43;;;;;;;3.90;3.50;;;;;;;;;;5023239;28;60134;-78
2024/03/05 03:21:09;;;;;;;3.90;3.60;;;;;;;;;;5024574;27;59631;-81
2024/03/05 03:23:34;;;;;;;4.43;4.03;;;;;;;;;;5025002;28;59226;-80
2024/03/05 03:25:59;;;;;;;4.57;4.17;;;;;;;;;;5026508;28;60137;-80
2024/03/05 03:28:24;;;;;;;3.78;3.47;;;;;;;;;;5027200;28;59734;-81
2024/03/05 03:30:54;;;;;;;4.35;3.95;;;;;;;;;;5027808;28;59194;-78
2024/03/05 03:33:20;;;;;;;4.50;4.10;;;;;;;;;;5027215;28;60321;-78
2024/03/05 03:35:45;;;;;;;3.67;3.38;;;;;;;;;;5027731;28;59360;-78
2024/03/05 03:38:11;;;;;;;4.38;3.97;;;;;;;;;;5029850;28;59330;-78
2024/03/05 03:40:36;;;;;;;4.53;3.90;;;;;;;;;;5027386;28;59257;-78
2024/03/05 03:43:01;;;;;;;4.38;3.97;;;;;;;;;;5030794;28;59281;-78
2024/03/05 03:45:27;;;;;;;4.83;4.43;;;;;;;;;;5028315;28;60406;-78
2024/03/05 03:47:52;;;;;;;4.65;4.22;;;;;;;;;;5029279;28;59430;-78
2024/03/05 03:50:17;;;;;;;3.95;3.63;;;;;;;;;;5026797;28;59141;-78
2024/03/05 03:52:43;;;;;;;3.93;3.63;;;;;;;;;;5025838;27;60080;-78
2024/03/05 03:55:08;;;;;;;4.00;3.55;;;;;;;;;;5024264;28;59264;-78
2024/03/05 03:57:34;;;;;;;3.85;3.55;;;;;;;;;;5026547;27;61371;-78
2024/03/05 04:00:00;;;;;;;4.32;4.03;;;;;;;;;;5025619;28;59271;-78
2024/03/05 04:02:25;;;;;;;4.85;4.38;;;;;;;;;;5024748;28;59195;-78
2024/03/05 04:04:50;;;;;;;4.27;3.87;;;;;;;;;;5025618;28;59437;-78
2024/03/05 04:07:18;;;;;;;4.00;3.70;;;;;;;;;;5024750;28;59265;-78
2024/03/05 04:09:44;;;;;;;4.10;3.65;;;;;;;;;;5025642;28;59221;-78
2024/03/05 04:12:10;;;;;;;3.70;3.40;;;;;;;;;;5026490;28;60602;-78
2024/03/05 04:14:35;;;;;;;5.68;3.50;;;;;;;;;;5025558;28;59311;-78
2024/03/05 04:17:00;;;;;;;3.60;3.30;;;;;;;;;;5025748;28;59246;-78
2024/03/05 04:19:26;;;;;;;4.23;3.33;;;;;;;;;;5026951;28;59388;-78
2024/03/05 04:21:51;;;;;;;3.90;3.60;;;;;;;;;;5027207;28;59290;-78
2024/03/05 04:24:17;;;;;;;3.87;3.57;;;;;;;;;;5024579;28;60068;-78
2024/03/05 04:26:43;;;;;;;3.97;3.55;;;;;;;;;;5027594;28;59020;-78
2024/03/05 04:29:16;;;;;;;3.80;3.35;;;;;;;;;;5026069;28;59219;-78
2024/03/05 04:31:42;;;;;;;3.97;3.63;;;;;;;;;;5024724;28;61353;-78
2024/03/05 04:34:07;;;;;;;3.83;3.53;;;;;;;;;;5024377;28;59730;-78
2024/03/05 04:36:35;;;;;;;4.17;3.77;;;;;;;;;;5021778;28;59270;-79
2024/03/05 04:39:00;;;;;;;4.13;3.80;;;;;;;;;;5021733;28;59245;-78
2024/03/05 04:41:26;;;;;;;3.47;3.13;;;;;;;;;;5022176;28;59466;-78
2024/03/05 04:43:51;;;;;;;3.80;3.50;;;;;;;;;;5026099;28;60139;-78
2024/03/05 04:46:16;;;;;;;4.10;3.70;;;;;;;;;;5024910;28;59214;-78
2024/03/05 04:48:41;;;;;;;3.90;3.30;;;;;;;;;;5024737;28;59224;-78
2024/03/05 04:51:08;;;;;;;3.70;3.28;;;;;;;;;;5026042;28;60111;-78
2024/03/05 04:53:36;;;;;;;4.57;4.18;;;;;;;;;;5023223;28;59361;-78
2024/03/05 04:56:01;;;;;;;3.38;3.08;;;;;;;;;;5025552;28;59216;-79
2024/03/05 04:58:26;;;;;;;4.25;3.33;;;;;;;;;;5024755;28;60725;-78
2024/03/05 05:00:51;;;;;;;3.07;2.63;;;;;;;;;;5024137;28;59196;-78
2024/03/05 05:03:16;;;;;;;3.45;3.15;;;;;;;;;;5020038;28;59848;-78
2024/03/05 05:05:42;;;;;;;3.55;3.08;;;;;;;;;;5023503;28;59251;-78
2024/03/05 05:08:07;;;;;;;3.40;3.03;;;;;;;;;;5023335;28;59273;-78
2024/03/05 05:10:33;;;;;;;3.37;3.07;;;;;;;;;;5025575;28;60722;-78
2024/03/05 05:12:58;;;;;;;3.35;2.83;;;;;;;;;;5024437;28;59337;-78
2024/03/05 05:15:24;;;;;;;3.17;2.97;;;;;;;;;;5025507;28;59420;-78
2024/03/05 05:17:49;;;;;;;3.47;3.10;;;;;;;;;;5028016;27;60442;-78
2024/03/05 05:20:15;;;;;;;3.03;2.78;;;;;;;;;;5027872;28;59708;-78
2024/03/05 05:22:41;;;;;;;3.47;3.17;;;;;;;;;;5026862;28;60298;-78
2024/03/05 05:25:08;;;;;;;6.18;3.67;;;;;;;;;;5025145;28;59287;-75
2024/03/05 05:27:33;;;;;;;4.07;3.67;;;;;;;;;;5026731;28;59290;-78
2024/03/05 05:29:58;;;;;;;2.83;2.60;;;;;;;;;;5030063;28;59708;-78
2024/03/05 05:32:24;;;;;;;3.63;3.33;;;;;;;;;;5027960;28;59310;-78
2024/03/05 05:34:49;;;;;;;3.73;3.40;;;;;;;;;;5029487;28;59191;-77
2024/03/05 05:37:15;;;;;;;3.83;2.97;;;;;;;;;;5027772;28;59923;-77
2024/03/05 05:39:41;;;;;;;7.43;4.07;;;;;;;;;;5024654;28;59229;-76
2024/03/05 05:42:07;;;;;;;9.23;3.60;;;;;;;;;;5027030;28;59245;-78
2024/03/05 05:44:32;;;;;;;5.03;3.78;;;;;;;;;;5026687;28;59217;-78
2024/03/05 05:46:57;;;;;;;5.45;4.30;;;;;;;;;;5027143;28;59262;-79
2024/03/05 05:49:23;;;;;;;8.13;3.63;;;;;;;;;;5025811;28;61114;-78
2024/03/05 05:51:48;;;;;;;11.30;3.83;;;;;;;;;;5027492;28;59288;-76
2024/03/05 05:54:13;;;;;;;7.10;4.07;;;;;;;;;;5026203;28;59279;-76
2024/03/05 05:56:39;;;;;;;6.10;4.30;;;;;;;;;;5026242;28;60730;-80
2024/03/05 05:59:05;;;;;;;8.90;4.27;;;;;;;;;;5023602;28;59291;-79
2024/03/05 06:01:33;;;;;;;4.50;4.10;;;;;;;;;;5022789;28;59117;-79
2024/03/05 06:03:58;;;;;;;5.57;4.03;;;;;;;;;;5024448;28;59400;-78
2024/03/05 06:06:23;;;;;;;7.22;5.85;;;;;;;;;;5026282;28;59336;-78
2024/03/05 06:08:49;;;;;;;7.40;4.82;;;;;;;;;;5025701;28;60115;-78
2024/03/05 06:11:14;;;;;;;8.07;4.70;;;;;;;;;;5027597;28;59845;-80
2024/03/05 06:13:40;;;;;;;6.53;4.50;;;;;;;;;;5027228;28;59167;-80
2024/03/05 06:16:07;;;;;;;9.23;5.13;;;;;;;;;;5028346;28;60022;-78
2024/03/05 06:18:33;;;;;;;9.68;4.55;;;;;;;;;;5027132;28;59335;-78
2024/03/05 06:20:58;;;;;;;6.80;4.90;;;;;;;;;;5026344;28;59276;-78
2024/03/05 06:23:23;;;;;;;5.50;4.47;;;;;;;;;;5027505;28;60269;-78
2024/03/05 06:25:49;;;;;;;7.07;4.70;;;;;;;;;;5026294;28;59288;-78
2024/03/05 06:28:14;;;;;;;10.15;4.85;;;;;;;;;;5027511;28;60200;-78
2024/03/05 06:30:45;;;;;;;9.20;4.40;;;;;;;;;;5025791;28;59290;-78
2024/03/05 06:33:11;;;;;;;8.45;5.55;;;;;;;;;;5026006;28;59185;-78
2024/03/05 06:35:37;;;;;;;8.23;4.35;;;;;;;;;;5026032;28;59385;-78
2024/03/05 06:38:03;;;;;;;8.93;4.63;;;;;;;;;;5026275;28;59194;-78
2024/03/05 06:40:28;;;;;;;5.35;4.38;;;;;;;;;;5024832;28;59195;-78
2024/03/05 06:43:03;;;;;;;5.87;4.00;;;;;;;;;;5029357;28;60009;-78
2024/03/05 06:45:29;;;;;;;7.68;4.88;;;;;;;;;;5024904;28;59357;-78
2024/03/05 06:47:56;;;;;;;10.38;4.45;;;;;;;;;;5028392;28;59217;-78
2024/03/05 06:50:23;;;;;;;8.55;5.40;;;;;;;;;;5025293;28;59365;-78
2024/03/05 06:58:16;;;;;;;5.03;3.85;;;;;;;;;;5023005;28;58945;-79
2024/03/05 07:00:44;;;;;;;7.63;4.40;;;;;;;;;;5030341;28;59265;-81
2024/03/05 07:03:10;;;;;;;6.68;4.80;;;;;;;;;;5029809;28;59590;-79
2024/03/05 07:05:35;;;;;;;8.32;4.82;;;;;;;;;;5030275;28;59294;-77
2024/03/05 07:08:00;;;;;;;8.17;5.40;;;;;;;;;;5031931;28;59255;-79
2024/03/05 07:10:27;;;;;;;6.03;4.22;;;;;;;;;;5029979;28;62018;-79
2024/03/05 07:12:52;;;;;;;13.85;4.78;;;;;;;;;;5030569;28;59224;-80
2024/03/05 07:15:17;;;;;;;5.95;3.72;;;;;;;;;;5029459;28;60003;-79
2024/03/05 07:17:43;;;;;;;9.00;4.47;;;;;;;;;;5030911;28;59371;-80
2024/03/05 07:20:18;;;;;;;5.97;3.60;;;;;;;;;;5028393;28;59229;-79
2024/03/05 07:22:43;;;;;;;7.72;4.45;;;;;;;;;;5028500;28;60656;-79
2024/03/05 07:25:10;;;;;;;4.47;3.53;;;;;;;;;;5028238;28;59470;-79
2024/03/05 07:27:35;;;;;;;7.88;4.10;;;;;;;;;;5028443;28;59234;-80
2024/03/05 07:30:00;;;;;;;8.98;4.10;;;;;;;;;;5029432;28;59969;-79
2024/03/05 07:32:26;;;;;;;6.80;4.10;;;;;;;;;;5030828;28;59271;-80
2024/03/05 07:34:51;;;;;;;7.30;3.70;;;;;;;;;;5030696;28;60414;-79
2024/03/05 07:37:16;;;;;;;7.05;3.95;;;;;;;;;;5030012;28;59269;-80
2024/03/05 07:39:41;;;;;;;5.95;4.00;;;;;;;;;;5028284;28;59513;-79
2024/03/05 07:42:06;;;;;;;6.77;3.63;;;;;;;;;;5028608;28;61034;-79
2024/03/05 07:44:34;;;;;;;7.20;4.37;;;;;;;;;;5030523;28;59064;-79
2024/03/05 07:46:59;;;;;;;6.03;4.67;;;;;;;;;;5030389;28;59308;-79
2024/03/05 07:49:24;;;;;;;4.87;4.33;;;;;;;;;;5029517;28;60178;-80
2024/03/05 07:51:49;;;;;;;7.63;3.83;;;;;;;;;;5029926;28;59451;-79
2024/03/05 07:54:15;;;;;;;6.57;4.40;;;;;;;;;;5027420;28;60426;-80
2024/03/05 07:56:40;;;;;;;4.63;3.67;;;;;;;;;;5027491;28;59373;-80
2024/03/05 07:59:05;;;;;;;6.73;3.57;;;;;;;;;;5028098;28;59211;-80
2024/03/05 08:01:30;;;;;;;4.83;3.40;;;;;;;;;;5029571;28;60119;-80
2024/03/05 08:03:56;;;;;;;4.80;3.30;;;;;;;;;;5028135;28;59166;-79
2024/03/05 08:06:22;;;;;;;6.03;3.95;;;;;;;;;;5027887;28;59395;-79
2024/03/05 08:08:47;;;;;;;5.85;4.30;;;;;;;;;;5029678;28;60038;-79
2024/03/05 08:11:12;;;;;;;6.57;4.53;;;;;;;;;;5030740;28;59333;-82
2024/03/05 08:13:37;;;;;;;4.30;3.77;;;;;;;;;;5030580;28;59205;-83
2024/03/05 08:16:04;;;;;;;4.93;3.88;;;;;;;;;;5026765;28;59789;-82
2024/03/05 08:18:29;;;;;;;4.43;3.05;;;;;;;;;;5028290;27;59266;-83
2024/03/05 08:20:54;;;;;;;5.20;3.92;;;;;;;;;;5029538;28;61161;-82
2024/03/05 08:23:19;;;;;;;5.45;3.60;;;;;;;;;;5028411;28;59168;-83
2024/03/05 08:25:48;;;;;;;5.70;4.20;;;;;;;;;;5029171;28;59153;-82
2024/03/05 08:28:13;;;;;;;4.28;3.58;;;;;;;;;;5031588;28;59458;-83
2024/03/05 08:30:39;;;;;;;4.13;3.72;;;;;;;;;;5027409;28;59331;-83
2024/03/05 08:33:05;;;;;;;4.05;3.33;;;;;;;;;;5028532;28;59347;-82
2024/03/05 08:35:31;;;;;;;5.32;3.50;;;;;;;;;;5028140;28;61404;-82
2024/03/05 08:37:58;;;;;;;5.10;3.90;;;;;;;;;;5030080;28;59278;-83
2024/03/05 08:40:24;;;;;;;4.65;3.55;;;;;;;;;;5028274;28;59460;-82
2024/03/05 08:42:49;;;;;;;4.20;3.33;;;;;;;;;;5030276;27;59314;-82
2024/03/05 08:45:15;;;;;;;4.35;3.58;;;;;;;;;;5028372;28;59198;-83
2024/03/05 08:47:46;;;;;;;5.45;3.75;;;;;;;;;;5031559;28;60353;-82
2024/03/05 08:50:12;;;;;;;4.57;4.03;;;;;;;;;;5027431;28;59218;-83
2024/03/05 08:52:37;;;;;;;4.70;3.38;;;;;;;;;;5028128;28;59379;-83
2024/03/05 08:55:05;;;;;;;3.77;3.10;;;;;;;;;;5027735;28;60060;-81
2024/03/05 08:57:30;;;;;;;3.20;2.90;;;;;;;;;;5026430;28;59907;-83
2024/03/05 08:59:55;;;;;;;4.43;3.77;;;;;;;;;;5031450;28;60335;-83
2024/03/05 09:02:20;;;;;;;3.73;3.43;;;;;;;;;;5029583;28;59378;-82
2024/03/05 09:04:46;;;;;;;4.05;3.20;;;;;;;;;;5028001;28;59307;-82
2024/03/05 09:07:11;;;;;;;5.07;3.77;;;;;;;;;;5024623;28;60017;-83
2024/03/05 09:09:36;;;;;;;4.17;3.20;;;;;;;;;;5029438;28;59863;-82
2024/03/05 09:12:01;;;;;;;3.73;3.33;;;;;;;;;;5028077;28;59873;-82
2024/03/05 09:14:26;;;;;;;4.10;2.93;;;;;;;;;;5032588;28;60316;-82
2024/03/05 09:16:52;;;;;;;6.60;3.97;;;;;;;;;;5029004;28;59351;-82
2024/03/05 09:19:17;;;;;;;3.72;3.42;;;;;;;;;;5031828;28;59334;-82
2024/03/05 09:21:46;;;;;;;4.25;2.92;;;;;;;;;;5030061;28;59401;-79
2024/03/05 09:24:11;;;;;;;;;;;;;;;;;;5025912;28;59194;-79
2024/03/05 09:26:36;;;;;;;4.78;2.92;;;;;;;;;;5030318;28;59815;-80
2024/03/05 09:29:01;;;;;;;7.85;4.10;;;;;;;;;;5027009;28;60177;-79
2024/03/05 09:31:27;;;;;;;3.57;3.07;;;;;;;;;;5027958;28;59251;-80
2024/03/05 09:33:53;;;;;;;3.75;3.40;;;;;;;;;;5027779;28;60960;-79
2024/03/05 09:36:18;;;;;;;5.90;3.78;;;;;;;;;;5026108;28;59311;-79
2024/03/05 09:38:44;;;;;;;5.57;3.30;;;;;;;;;;5029667;28;59500;-79
2024/03/05 09:41:09;;;;;;;2.75;2.35;;;;;;;;;;5027400;28;59321;-79
2024/03/05 09:43:39;;;;;;;3.50;3.20;;;;;;;;;;5026711;28;59282;-79
2024/03/05 09:46:06;;;;;;;4.35;2.55;;;;;;;;;;5027968;28;59359;-79
2024/03/05 09:48:33;;;;;;;4.45;3.40;;;;;;;;;;5027485;28;59685;-79
2024/03/05 09:50:58;;;;;;;3.95;3.65;;;;;;;;;;5024506;28;59241;-79
2024/03/05 09:53:23;;;;;;;3.97;3.67;;;;;;;;;;5028356;28;60312;-80
2024/03/05 09:55:52;;;;;;;3.53;2.67;;;;;;;;;;5027532;28;58497;-80
2024/03/05 09:58:23;;;;;;;3.45;3.15;;;;;;;;;;5027087;28;60215;-79
2024/03/05 10:00:48;;;;;;;5.40;4.20;;;;;;;;;;5027121;28;60260;-80
2024/03/05 10:03:13;;;;;;;3.40;3.08;;;;;;;;;;5026887;28;59235;-79
2024/03/05 10:05:40;;;;;;;3.67;3.37;;;;;;;;;;5025462;28;59696;-79
2024/03/05 10:08:05;;;;;;;3.63;3.33;;;;;;;;;;5025740;28;60005;-79
2024/03/05 10:10:31;;;;;;;3.22;2.67;;;;;;;;;;5027304;28;59193;-79
2024/03/05 10:12:56;;;;;;;3.63;3.30;;;;;;;;;;5027301;28;60910;-80
2024/03/05 10:15:24;;;;;;;3.53;3.22;;;;;;;;;;5024689;28;59355;-79
2024/03/05 10:17:50;;;;;;;;;;;;;;;;;;5027589;28;59256;-79
2024/03/05 10:20:24;;;;;;;3.05;2.75;;;;;;;;;;5028353;28;60157;-80
2024/03/05 10:22:50;;;;;;;3.17;2.88;;;;;;;;;;5027101;28;59633;-79
2024/03/05 10:25:15;;;;;;;3.47;3.17;;;;;;;;;;5025112;28;60292;-79
2024/03/05 10:27:44;;;;;;;3.37;3.00;;;;;;;;;;5027550;27;59112;-79
2024/03/05 10:30:23;;;;;;;3.17;2.90;;;;;;;;;;5027466;28;59279;-79
2024/03/05 10:32:56;;;;;;;2.97;2.72;;;;;;;;;;5025635;28;60187;-83
2024/03/05 10:35:22;;;;;;;3.85;3.10;;;;;;;;;;5028832;28;59636;-82
2024/03/05 10:38:05;;;;;;;4.00;3.40;;;;;;;;;;5031059;28;59218;-80
2024/03/05 10:40:37;;;;;;;4.30;3.40;;;;;;;;;;5031850;28;60287;-79
2024/03/05 10:43:06;;;;;;;3.53;3.22;;;;;;;;;;5030891;28;59351;-79
2024/03/05 10:45:34;;;;;;;4.35;2.90;;;;;;;;;;5030827;28;59406;-79
2024/03/05 10:48:00;;;;;;;3.55;3.03;;;;;;;;;;5028823;28;59266;-79
2024/03/05 10:50:26;;;;;;;3.88;3.47;;;;;;;;;;5032811;28;59210;-80
2024/03/05 10:52:52;;;;;;;3.47;3.17;;;;;;;;;;5030126;28;60358;-79
2024/03/05 10:55:17;;;;;;;3.72;3.40;;;;;;;;;;5029608;28;59717;-81
2024/03/05 11:00:26;;;;;;;3.65;2.67;;;;;;;;;;5030669;28;59241;-81
2024/03/05 11:02:57;;;;;;;3.47;3.17;;;;;;;;;;5031495;28;59910;-79
2024/03/05 11:05:23;;;;;;;4.03;2.78;;;;;;;;;;5028328;28;59314;-78
2024/03/05 11:07:48;;;;;;;3.55;3.25;;;;;;;;;;5030246;28;59909;-79
2024/03/05 11:10:13;;;;;;;3.30;2.93;;;;;;;;;;5028790;28;59302;-79
2024/03/05 11:12:40;;;;;;;3.10;2.80;;;;;;;;;;5028022;28;60794;-80
2024/03/05 11:15:07;;;;;;;3.05;2.75;;;;;;;;;;5029104;28;59331;-80
2024/03/05 11:17:35;;;;;;;3.60;3.30;;;;;;;;;;5030096;28;59219;-79
2024/03/05 11:20:00;;;;;;;3.83;2.85;;;;;;;;;;5029950;28;60622;-78
2024/03/05 11:22:26;;;;;;;3.23;2.93;;;;;;;;;;5031453;28;59912;-78
2024/03/05 11:24:55;;;;;;;2.88;2.67;;;;;;;;;;5028155;28;59223;-79
2024/03/05 11:27:24;;;;;;;2.75;2.55;;;;;;;;;;5027615;28;61446;-80
2024/03/05 11:29:58;;;;;;;3.10;2.80;;;;;;;;;;5028398;28;59381;-80
2024/03/05 11:32:26;;;;;;;3.08;2.65;;;;;;;;;;5028842;28;59482;-78
2024/03/05 11:34:53;;;;;;;3.65;2.88;;;;;;;;;;5028962;28;59397;-78
2024/03/05 11:37:18;;;;;;;3.67;2.78;;;;;;;;;;5028826;28;59225;-78
2024/03/05 11:39:45;;;;;;;3.03;2.72;;;;;;;;;;5029183;28;61393;-76
2024/03/05 11:42:17;;;;;;;2.97;2.70;;;;;;;;;;5025931;28;60067;-78
2024/03/05 11:44:42;;;;;;;3.67;3.38;;;;;;;;;;5029538;28;59272;-77
2024/03/05 11:47:07;;;;;;;3.65;2.47;;;;;;;;;;5029865;28;60016;-78
2024/03/05 11:49:36;;;;;;;2.90;2.70;;;;;;;;;;5028965;28;58918;-78
2024/03/05 11:52:01;;;;;;;3.20;3.00;;;;;;;;;;5029174;28;60291;-78
2024/03/05 11:54:26;;;;;;;3.63;3.10;;;;;;;;;;5025805;28;59228;-78
2024/03/05 11:56:56;;;;;;;2.80;2.60;;;;;;;;;;5027873;28;59461;-78
2024/03/05 11:59:31;;;;;;;3.83;3.53;;;;;;;;;;5030654;28;60546;-79
2024/03/05 12:01:58;;;;;;;3.63;2.83;;;;;;;;;;5028561;28;64178;-79
2024/03/05 12:04:23;;;;;;;2.92;2.65;;;;;;;;;;5028111;28;59269;-79
2024/03/05 12:06:56;;;;;;;3.30;3.10;;;;;;;;;;5028535;28;61873;-78
2024/03/05 12:09:21;;;;;;;3.33;3.03;;;;;;;;;;5028158;28;59343;-78
2024/03/05 12:12:02;;;;;;;3.27;3.03;;;;;;;;;;5029151;28;59226;-78
2024/03/05 12:14:29;;;;;;;2.80;2.55;;;;;;;;;;5030505;28;59208;-79
2024/03/05 12:16:56;;;;;;;3.47;3.17;;;;;;;;;;5028507;27;59428;-79
2024/03/05 12:19:21;;;;;;;2.72;2.55;;;;;;;;;;5028460;28;60390;-79
2024/03/05 12:21:46;;;;;;;2.63;2.42;;;;;;;;;;5029884;28;59236;-79
2024/03/05 12:24:12;;;;;;;2.85;2.60;;;;;;;;;;5027662;28;59348;-79
2024/03/05 12:26:38;;;;;;;3.38;3.08;;;;;;;;;;5027047;28;61550;-79
2024/03/05 12:29:03;;;;;;;3.17;2.85;;;;;;;;;;5027419;28;59488;-79
2024/03/05 12:31:28;;;;;;;4.07;3.60;;;;;;;;;;5028037;28;58513;-79
2024/03/05 12:33:53;;;;;;;2.80;2.60;;;;;;;;;;5028900;28;60473;-78
2024/03/05 12:36:19;;;;;;;2.87;2.67;;;;;;;;;;5029304;28;59430;-76
2024/03/05 12:38:44;;;;;;;2.80;2.60;;;;;;;;;;5030290;28;59609;-78
2024/03/05 12:41:09;;;;;;;3.47;3.17;;;;;;;;;;5030010;28;59357;-79
2024/03/05 12:43:34;;;;;;;3.50;3.08;;;;;;;;;;5029999;28;59263;-78
2024/03/05 12:46:02;;;;;;;3.20;2.90;;;;;;;;;;5028167;28;60371;-79
2024/03/05 12:48:27;;;;;;;3.10;2.80;;;;;;;;;;5027664;28;59402;-79
2024/03/05 12:50:56;;;;;;;3.60;3.30;;;;;;;;;;5028258;28;59525;-80
2024/03/05 12:53:21;;;;;;;3.40;2.92;;;;;;;;;;5029903;28;60627;-79
2024/03/05 12:55:46;;;;;;;4.10;3.13;;;;;;;;;;5029280;28;58704;-79
2024/03/05 12:58:12;;;;;;;3.20;3.00;;;;;;;;;;5030265;28;60304;-79
2024/03/05 13:00:38;;;;;;;3.55;3.25;;;;;;;;;;5031133;28;59356;-79
2024/03/05 13:03:04;;;;;;;3.53;2.95;;;;;;;;;;5030665;28;59340;-79
2024/03/05 13:05:33;;;;;;;3.50;2.72;;;;;;;;;;5029524;28;59225;-79
2024/03/05 13:07:58;;;;;;;2.72;2.53;;;;;;;;;;5027665;28;62031;-79
2024/03/05 13:10:23;;;;;;;3.83;3.53;;;;;;;;;;5027761;28;59233;-79
2024/03/05 13:12:49;;;;;;;3.17;2.88;;;;;;;;;;5028716;28;59321;-79
2024/03/05 13:15:14;;;;;;;3.47;3.17;;;;;;;;;;5024640;28;59265;-79
2024/03/05 13:17:39;;;;;;;3.83;3.05;;;;;;;;;;5029863;28;59247;-79
2024/03/05 13:20:16;;;;;;;2.50;2.30;;;;;;;;;;5027177;28;59191;-80
2024/03/05 13:22:41;;;;;;;2.80;2.50;;;;;;;;;;5027361;28;59286;-79
2024/03/05 13:25:07;;;;;;;2.80;2.60;;;;;;;;;;5025814;28;60481;-79
2024/03/05 13:27:32;;;;;;;3.53;3.23;;;;;;;;;;5024619;28;60116;-79
2024/03/05 13:29:57;;;;;;;3.00;2.53;;;;;;;;;;5026651;28;59187;-79
2024/03/05 13:32:25;;;;;;;3.13;2.83;;;;;;;;;;5028296;28;61035;-79
2024/03/05 13:34:53;;;;;;;7.78;3.38;;;;;;;;;;5026049;28;59050;-80
2024/03/05 13:37:20;;;;;;;3.13;2.85;;;;;;;;;;5027291;28;59223;-79
2024/03/05 13:39:45;;;;;;;3.25;2.42;;;;;;;;;;5025666;28;59492;-79
2024/03/05 13:42:11;;;;;;;2.85;2.65;;;;;;;;;;5025788;28;59228;-80
2024/03/05 13:44:36;;;;;;;2.83;2.40;;;;;;;;;;5026364;28;59476;-80
2024/03/05 13:47:01;;;;;;;2.93;2.67;;;;;;;;;;5018543;28;59466;-79
2024/03/05 13:49:26;;;;;;;3.72;3.33;;;;;;;;;;5019950;28;59076;-79
2024/03/05 13:51:51;;;;;;;4.05;3.20;;;;;;;;;;5018046;28;60089;-79
2024/03/05 13:54:18;;;;;;;4.45;4.05;;;;;;;;;;5015734;28;59323;-79
2024/03/05 13:56:44;;;;;;;10.30;5.30;;;;;;;;;;5022451;28;59259;-79
2024/03/05 13:59:12;;;;;;;4.17;3.83;;;;;;;;;;5025465;28;59302;-77
2024/03/05 14:01:38;;;;;;;17.25;5.47;;;;;;;;;;5023036;28;59361;-78
2024/03/05 14:04:09;;;;;;;7.72;5.57;;;;;;;;;;5023524;28;60384;-78
2024/03/05 14:06:34;;;;;;;9.38;7.43;;;;;;;;;;5020951;28;59196;-78
2024/03/05 14:09:00;;;;;;;10.32;8.15;;;;;;;;;;5024213;28;59141;-79
2024/03/05 14:11:25;;;;;;;13.27;11.88;;;;;;;;;;5027687;28;59751;-81
2024/03/05 14:13:51;;;;;;;18.95;15.10;;;;;;;;;;5023390;28;59605;-81
2024/03/05 14:16:17;;;;;;;20.13;15.07;;;;;;;;;;5026642;28;59253;-81
2024/03/05 14:18:43;;;;;;;24.23;18.33;;;;;;;;;;5026002;28;60239;-81
2024/03/05 14:21:09;;;;;;;28.73;19.67;;;;;;;;;;5025766;28;59246;-81
2024/03/05 14:23:34;;;;;;;35.47;25.92;;;;;;;;;;5023672;28;60300;-81
2024/03/05 14:26:00;;;;;;;39.10;27.33;;;;;;;;;;5025479;28;59231;-81
2024/03/05 14:28:25;;;;;;;52.00;31.47;;;;;;;;;;5025943;27;59282;-79
2024/03/05 14:30:50;;;;;;;53.40;35.60;;;;;;;;;;5026115;28;59504;-79
2024/03/05 14:33:16;;;;;;;48.70;33.17;;;;;;;;;;5026244;28;59459;-78
2024/03/05 14:35:41;;;;;;;48.83;34.83;;;;;;;;;;5025608;28;59324;-78
2024/03/05 14:38:12;;;;;;;51.63;34.30;;;;;;;;;;5026027;28;60078;-78
2024/03/05 14:40:38;;;;;;;49.60;34.22;;;;;;;;;;5023671;28;59599;-80
2024/03/05 14:43:03;;;;;;;48.17;34.13;;;;;;;;;;5026933;28;59374;-80
2024/03/05 14:45:29;;;;;;;52.22;35.38;;;;;;;;;;5027971;28;59373;-79